Time;durP1;ratioP1;P1;durP2;ratioP2;P2;SDS_P1;SDS_P2;PMS_P1;PMS_P2;Temp;Humidity;BMP_temperature;BMP_pressure;BME280_temperature;BME280_humidity;BME280_pressure;Samples;Min_cycle;Max_cycle;Signal;HPM_P1;HPM_P2
2021/01/11 00:00:37;;;;;;;31.30;20.85;;;;;;;-1.72;81.93;100899.13;1750381;82;21169;-67
2021/01/11 00:03:05;;;;;;;23.70;16.27;;;;;;;-1.74;81.94;100883.18;1744672;80;21366;-68
2021/01/11 00:05:34;;;;;;;36.77;20.88;;;;;;;-1.76;81.95;100877.16;1748498;80;21116;-68
2021/01/11 00:08:05;;;;;;;35.50;22.73;;;;;;;-1.80;81.93;100866.46;1729422;81;21407;-67
2021/01/11 00:10:36;;;;;;;33.83;21.80;;;;;;;-1.82;81.93;100855.29;1701079;83;21112;-67
2021/01/11 00:13:04;;;;;;;34.55;21.97;;;;;;;-1.83;81.88;100851.00;1721035;83;22464;-67
2021/01/11 00:15:34;;;;;;;36.35;22.93;;;;;;;-1.84;81.87;100857.48;1731217;82;21149;-67
2021/01/11 00:18:02;;;;;;;36.75;22.55;;;;;;;-1.87;81.87;100849.78;1729617;82;21064;-67
2021/01/11 00:20:32;;;;;;;32.23;20.77;;;;;;;-1.88;81.85;100850.67;1736296;82;21144;-68
2021/01/11 00:23:00;;;;;;;32.10;20.85;;;;;;;-1.92;81.83;100853.78;1751069;82;22685;-67
2021/01/11 00:25:28;;;;;;;33.20;21.10;;;;;;;-1.95;81.78;100862.03;1737371;82;21052;-67
2021/01/11 00:27:56;;;;;;;35.08;22.62;;;;;;;-2.01;81.71;100856.55;1732245;80;21567;-68
2021/01/11 00:30:24;;;;;;;30.70;19.85;;;;;;;-2.06;81.64;100855.78;1750928;82;21097;-68
2021/01/11 00:32:53;;;;;;;32.70;21.75;;;;;;;-2.11;81.57;100862.35;1734904;80;21115;-68
2021/01/11 00:35:21;;;;;;;34.88;21.50;;;;;;;-2.15;81.57;100867.60;1720905;82;22083;-68
2021/01/11 00:37:50;;;;;;;35.60;22.22;;;;;;;-2.17;81.59;100872.81;1741967;82;21120;-68
2021/01/11 00:40:19;;;;;;;35.63;22.60;;;;;;;-2.19;81.53;100871.14;1750936;81;21049;-68
2021/01/11 00:42:46;;;;;;;36.00;23.40;;;;;;;-2.23;81.48;100872.92;1750994;82;22634;-68
2021/01/11 00:45:14;;;;;;;34.80;23.05;;;;;;;-2.26;81.45;100877.31;1732653;81;21100;-68
2021/01/11 00:47:43;;;;;;;35.95;23.18;;;;;;;-2.29;81.38;100881.26;1737148;82;22149;-68
2021/01/11 00:50:13;;;;;;;33.63;21.10;;;;;;;-2.35;81.33;100892.11;1722753;82;21116;-68
2021/01/11 00:52:42;;;;;;;33.92;22.70;;;;;;;-2.39;81.33;100888.33;1729767;82;21128;-68
2021/01/11 00:55:14;;;;;;;30.02;18.00;;;;;;;-2.44;81.38;100887.55;1725579;81;21352;-68
2021/01/11 00:57:43;;;;;;;28.25;18.82;;;;;;;-2.46;81.49;100886.28;1720768;83;21127;-68
2021/01/11 01:00:15;;;;;;;35.03;22.62;;;;;;;-2.48;81.59;100876.86;1720255;83;22279;-67
2021/01/11 01:02:53;;;;;;;40.45;23.07;;;;;;;-2.49;81.68;100868.25;1720697;82;21124;-67
2021/01/11 01:05:21;;;;;;;40.33;23.15;;;;;;;-2.49;81.78;100864.36;1721084;83;21344;-67
2021/01/11 01:07:49;;;;;;;34.20;20.88;;;;;;;-2.47;81.76;100871.65;1721012;83;21064;-67
2021/01/11 01:10:17;;;;;;;35.35;21.93;;;;;;;-2.46;81.75;100878.97;1722015;82;21044;-67
2021/01/11 01:12:45;;;;;;;33.83;23.38;;;;;;;-2.45;81.84;100877.64;1721183;83;21919;-67
2021/01/11 01:15:14;;;;;;;40.10;26.33;;;;;;;-2.42;81.82;100875.44;1721177;82;21582;-67
2021/01/11 01:17:42;;;;;;;52.53;34.73;;;;;;;-2.41;81.84;100871.99;1721926;82;21061;-67
2021/01/11 01:20:17;;;;;;;64.12;43.00;;;;;;;-2.41;81.84;100862.94;1727093;82;21049;-66
2021/01/11 01:22:50;;;;;;;44.38;29.65;;;;;;;-2.44;81.80;100857.80;1721358;82;21412;-67
2021/01/11 01:25:18;;;;;;;31.23;20.50;;;;;;;-2.46;81.75;100855.25;1732963;82;21905;-67
2021/01/11 01:27:46;;;;;;;33.28;22.40;;;;;;;-2.49;81.70;100859.19;1725163;80;21575;-67
2021/01/11 01:30:15;;;;;;;72.40;43.25;;;;;;;-2.52;81.67;100859.67;1721307;82;21107;-67
2021/01/11 01:32:43;;;;;;;69.45;42.78;;;;;;;-2.52;81.69;100864.40;1721735;82;21143;-67
2021/01/11 01:35:12;;;;;;;32.98;21.90;;;;;;;-2.54;81.67;100854.97;1721271;82;21348;-67
2021/01/11 01:37:39;;;;;;;53.95;31.90;;;;;;;-2.54;81.60;100867.46;1721380;82;22964;-67
2021/01/11 01:40:09;;;;;;;64.65;38.30;;;;;;;-2.58;81.59;100870.99;1730466;82;21100;-67
2021/01/11 01:42:37;;;;;;;80.67;49.15;;;;;;;-2.60;81.58;100875.34;1729740;82;21404;-67
2021/01/11 01:45:06;;;;;;;95.22;60.05;;;;;;;-2.61;81.50;100883.95;1739309;82;21124;-67
2021/01/11 01:47:34;;;;;;;74.22;45.55;;;;;;;-2.63;81.43;100883.14;1709524;82;21128;-66
2021/01/11 01:50:08;;;;;;;68.52;42.08;;;;;;;-2.64;81.41;100886.16;1720808;82;21907;-68
2021/01/11 01:52:38;;;;;;;48.20;29.48;;;;;;;-2.66;81.36;100880.61;1747344;81;21116;-68
2021/01/11 01:55:09;;;;;;;105.30;59.80;;;;;;;-2.68;81.34;100882.38;1734445;81;21078;-67
2021/01/11 01:57:37;;;;;;;69.07;40.38;;;;;;;-2.68;81.38;100888.41;1750830;81;21350;-67
2021/01/11 02:00:07;;;;;;;51.25;28.25;;;;;;;-2.66;81.43;100882.76;1708747;82;21127;-68
2021/01/11 02:02:41;;;;;;;83.92;43.23;;;;;;;-2.62;81.51;100897.33;1730079;82;22167;-68
2021/01/11 02:05:10;;;;;;;66.72;35.90;;;;;;;-2.58;81.56;100898.15;1729636;82;21081;-68
2021/01/11 02:08:09;;;;;;;64.77;37.38;;;;;;;-2.54;81.61;100898.50;1749175;81;21074;-68
2021/01/11 02:10:56;;;;;;;34.40;20.10;;;;;;;-2.50;81.60;100894.99;1748629;82;21049;-67
2021/01/11 02:13:47;;;;;;;31.75;20.75;;;;;;;-2.46;81.61;100897.08;1741408;82;21104;-67
2021/01/11 02:16:41;;;;;;;34.55;22.42;;;;;;;-2.43;81.64;100906.91;1722897;82;21963;-67
2021/01/11 02:19:25;;;;;;;28.77;18.82;;;;;;;-2.39;81.65;100902.13;1733387;82;21079;-68
2021/01/11 02:22:12;;;;;;;24.50;17.12;;;;;;;-2.35;81.69;100894.70;1736899;82;21567;-68
2021/01/11 02:25:14;;;;;;;54.58;29.82;;;;;;;-2.31;81.67;100895.08;1721635;83;21497;-68
2021/01/11 02:27:52;;;;;;;37.13;21.73;;;;;;;-2.28;81.64;100893.31;1758154;80;21579;-67
2021/01/11 02:30:35;;;;;;;40.45;27.15;;;;;;;-2.27;81.53;100895.86;1744690;80;21964;-67
2021/01/11 02:33:12;;;;;;;78.45;50.67;;;;;;;-2.27;81.42;100892.42;1731180;82;21184;-67
2021/01/11 02:36:00;;;;;;;35.20;24.15;;;;;;;-2.27;81.35;100885.52;1737802;82;21047;-67
2021/01/11 02:38:27;;;;;;;29.60;20.92;;;;;;;-2.25;81.32;100888.06;1721346;82;21053;-69
2021/01/11 02:40:55;;;;;;;22.30;17.15;;;;;;;-2.24;81.30;100886.73;1729295;82;21049;-69
2021/01/11 02:43:25;;;;;;;24.35;17.92;;;;;;;-2.24;81.18;100883.30;1730068;82;21901;-69
2021/01/11 02:45:53;;;;;;;20.23;13.93;;;;;;;-2.23;81.15;100883.70;1748113;82;21128;-68
2021/01/11 02:48:31;;;;;;;15.48;11.20;;;;;;;-2.19;81.13;100885.38;1724566;81;21044;-68
2021/01/11 02:51:25;;;;;;;19.37;14.40;;;;;;;-2.16;81.08;100884.87;1734682;82;21496;-68
2021/01/11 02:54:14;;;;;;;14.85;10.48;;;;;;;-2.14;81.03;100900.36;1701390;82;21118;-68
2021/01/11 02:57:28;;;;;;;17.07;11.68;;;;;;;-2.13;80.99;100904.20;1740643;81;21833;-67
2021/01/11 03:00:05;;;;;;;;;;;;;;;-2.11;80.89;100897.73;1752045;82;21101;-67
2021/01/11 03:02:35;;;;;;;14.93;10.50;;;;;;;-2.07;80.77;100890.31;1749170;82;20260;-66
2021/01/11 03:05:04;;;;;;;21.05;14.58;;;;;;;-2.06;80.68;100890.28;1742584;82;21164;-67
2021/01/11 03:07:32;;;;;;;13.75;10.23;;;;;;;-2.03;80.63;100885.47;1741891;82;21025;-67
2021/01/11 03:10:00;;;;;;;16.48;10.63;;;;;;;-2.03;80.56;100890.23;1730816;82;22092;-67
2021/01/11 03:12:31;;;;;;;12.98;9.15;;;;;;;-2.00;80.48;100892.34;1750670;81;21073;-67
2021/01/11 03:14:58;;;;;;;13.30;9.63;;;;;;;-1.99;80.41;100900.52;1733598;81;21152;-67
2021/01/11 03:17:26;;;;;;;12.05;9.03;;;;;;;-2.01;80.33;100910.91;1748253;82;21528;-67
2021/01/11 03:19:54;;;;;;;12.47;8.10;;;;;;;-2.00;80.28;100915.64;1750050;81;20958;-68
2021/01/11 03:22:21;;;;;;;10.08;7.10;;;;;;;-2.00;80.21;100921.67;1750979;82;24361;-67
2021/01/11 03:24:49;;;;;;;14.43;9.70;;;;;;;-2.02;80.09;100932.06;1750700;81;20933;-67
2021/01/11 03:27:17;;;;;;;17.10;11.15;;;;;;;-2.03;80.04;100935.95;1739180;82;21057;-67
2021/01/11 03:29:45;;;;;;;18.20;11.97;;;;;;;-2.04;80.00;100938.13;1748630;81;21088;-68
2021/01/11 03:32:12;;;;;;;16.30;11.05;;;;;;;-2.02;79.96;100940.27;1721107;82;21563;-67
2021/01/11 03:34:40;;;;;;;16.77;11.25;;;;;;;-2.00;79.96;100941.53;1738577;82;22118;-67
2021/01/11 03:37:07;;;;;;;18.45;11.48;;;;;;;-2.01;79.80;100941.97;1765048;81;21107;-67
2021/01/11 03:39:35;;;;;;;15.08;10.28;;;;;;;-2.02;79.78;100943.71;1745779;81;21115;-67
2021/01/11 03:42:04;;;;;;;15.53;10.13;;;;;;;-2.00;79.77;100945.41;1770140;81;21114;-68
2021/01/11 03:44:32;;;;;;;14.53;10.23;;;;;;;-1.98;79.76;100950.11;1717192;82;21091;-67
2021/01/11 03:46:59;;;;;;;15.48;10.78;;;;;;;-1.95;79.68;100951.34;1747469;81;22112;-68
2021/01/11 03:49:28;;;;;;;14.15;10.63;;;;;;;-1.93;79.66;100953.04;1769859;81;21146;-67
2021/01/11 03:52:04;;;;;;;15.80;11.10;;;;;;;-1.92;79.68;100939.66;1769520;81;21418;-67
2021/01/11 03:54:32;;;;;;;20.37;13.15;;;;;;;-1.90;79.70;100941.77;1763371;81;21082;-67
2021/01/11 03:56:59;;;;;;;40.78;25.30;;;;;;;-1.89;79.70;100936.55;1740639;81;21371;-68
2021/01/11 03:59:27;;;;;;;39.73;24.50;;;;;;;-1.86;79.71;100939.52;1769933;80;22066;-67
2021/01/11 04:01:55;;;;;;;31.10;18.67;;;;;;;-1.86;79.75;100944.25;1758502;81;21173;-67
2021/01/11 04:04:23;;;;;;;31.40;19.15;;;;;;;-1.83;79.73;100947.25;1770895;81;21157;-67
2021/01/11 04:06:53;;;;;;;28.25;18.17;;;;;;;-1.82;79.75;100954.98;1752335;81;21505;-67
2021/01/11 04:09:21;;;;;;;25.35;15.35;;;;;;;-1.80;79.72;100963.56;1730362;82;21061;-67
2021/01/11 04:11:50;;;;;;;22.20;12.63;;;;;;;-1.78;79.67;100958.34;1756768;81;21888;-67
2021/01/11 04:14:19;;;;;;;23.50;12.98;;;;;;;-1.78;79.60;100956.61;1740531;81;21586;-68
2021/01/11 04:16:48;;;;;;;31.15;15.60;;;;;;;-1.78;79.55;100953.17;1769422;81;21142;-67
2021/01/11 04:19:16;;;;;;;38.55;17.65;;;;;;;-1.79;79.52;100957.50;1707590;82;21461;-66
2021/01/11 04:21:44;;;;;;;31.00;17.20;;;;;;;-1.80;79.42;100960.97;1740502;81;21584;-67
2021/01/11 04:24:12;;;;;;;36.65;19.37;;;;;;;-1.84;79.34;100961.89;1740090;81;24218;-67
2021/01/11 04:26:45;;;;;;;34.60;17.85;;;;;;;-1.85;79.32;100960.64;1740150;81;21501;-69
2021/01/11 04:29:13;;;;;;;37.60;19.85;;;;;;;-1.84;79.35;100963.63;1744623;81;21162;-67
2021/01/11 04:31:41;;;;;;;36.83;20.15;;;;;;;-1.85;79.35;100955.45;1770595;81;21074;-67
2021/01/11 04:34:09;;;;;;;29.72;17.02;;;;;;;-1.85;79.41;100961.94;1768025;81;21365;-68
2021/01/11 04:36:37;;;;;;;33.05;18.10;;;;;;;-1.84;79.43;100961.05;1740318;81;24262;-67
2021/01/11 04:39:05;;;;;;;33.38;17.57;;;;;;;-1.84;79.45;100959.31;1748165;81;21129;-67
2021/01/11 04:41:36;;;;;;;25.95;14.38;;;;;;;-1.82;79.46;100952.83;1768669;81;21193;-67
2021/01/11 04:44:10;;;;;;;23.25;13.80;;;;;;;-1.81;79.44;100957.98;1724832;81;21137;-67
2021/01/11 04:46:37;;;;;;;16.35;10.13;;;;;;;-1.81;79.39;100955.39;1740353;82;21074;-67
2021/01/11 04:49:06;;;;;;;14.13;9.53;;;;;;;-1.80;79.35;100947.17;1751088;81;21905;-68
2021/01/11 04:51:36;;;;;;;15.18;9.73;;;;;;;-1.84;79.20;100939.03;1723740;81;21165;-69
2021/01/11 04:54:05;;;;;;;14.85;9.95;;;;;;;-1.86;79.13;100931.75;1684632;84;21108;-68
2021/01/11 04:56:40;;;;;;;14.50;9.73;;;;;;;-1.89;79.09;100923.61;1710519;82;21618;-68
2021/01/11 04:59:09;;;;;;;13.15;9.65;;;;;;;-1.91;78.97;100925.37;1703799;81;21166;-67
2021/01/11 05:01:37;;;;;;;14.20;10.00;;;;;;;-1.93;78.91;100935.33;1748639;81;21888;-67
2021/01/11 05:04:04;;;;;;;10.43;6.85;;;;;;;-1.94;78.89;100936.22;1692089;82;21586;-69
2021/01/11 05:06:32;;;;;;;11.68;8.38;;;;;;;-1.97;78.78;100947.49;1740753;81;21162;-67
2021/01/11 05:09:07;;;;;;;13.68;9.78;;;;;;;-2.01;78.69;100948.44;1744170;81;21530;-67
2021/01/11 05:11:35;;;;;;;15.70;11.28;;;;;;;-2.03;78.68;100946.30;1748889;81;21434;-67
2021/01/11 05:14:04;;;;;;;24.60;19.90;;;;;;;-2.02;78.68;100946.73;1766662;81;21564;-69
2021/01/11 05:16:32;;;;;;;18.85;12.70;;;;;;;-2.04;78.63;100932.95;1755694;79;21086;-68
2021/01/11 05:19:25;;;;;;;14.68;10.20;;;;;;;-2.08;78.60;100936.05;1768130;79;21597;-68
2021/01/11 05:21:53;;;;;;;15.30;9.83;;;;;;;-2.08;78.62;100937.78;1741270;81;21178;-66
2021/01/11 05:24:39;;;;;;;13.85;9.45;;;;;;;-2.10;78.59;100952.49;1740449;82;21525;-67
2021/01/11 05:27:09;;;;;;;17.07;12.47;;;;;;;-2.14;78.58;100954.27;1741382;81;22040;-67
2021/01/11 05:29:38;;;;;;;19.30;12.60;;;;;;;-2.15;78.59;100958.17;1746847;81;21395;-68
2021/01/11 05:32:08;;;;;;;14.47;11.03;;;;;;;-2.16;78.58;100964.23;1749927;79;21142;-67
2021/01/11 05:34:51;;;;;;;14.60;9.93;;;;;;;-2.19;78.53;100962.56;1761880;81;21165;-67
2021/01/11 05:37:39;;;;;;;12.82;9.45;;;;;;;-2.21;78.53;100962.19;1720012;81;21104;-68
2021/01/11 05:40:16;;;;;;;13.50;9.63;;;;;;;-2.26;78.49;100960.95;1756487;81;22144;-65
2021/01/11 05:42:52;;;;;;;12.78;9.13;;;;;;;-2.28;78.44;100960.14;1745319;81;21198;-67
2021/01/11 05:45:35;;;;;;;14.18;9.43;;;;;;;-2.28;78.44;100965.75;1732588;82;21481;-67
2021/01/11 05:48:11;;;;;;;13.88;9.08;;;;;;;-2.34;78.42;100968.84;1732492;82;21139;-66
2021/01/11 05:50:46;;;;;;;13.88;9.28;;;;;;;-2.41;78.41;100965.12;1732781;81;21051;-66
2021/01/11 05:53:23;;;;;;;15.93;10.45;;;;;;;-2.43;78.42;100966.85;1699207;84;23047;-67
2021/01/11 05:55:52;;;;;;;18.42;12.45;;;;;;;-2.46;78.37;100982.44;1681432;83;21085;-66
2021/01/11 05:58:21;;;;;;;14.65;10.28;;;;;;;-2.49;78.37;100985.93;1762787;81;21091;-68
2021/01/11 06:00:49;;;;;;;12.78;9.33;;;;;;;-2.47;78.33;100988.48;1745283;81;21103;-69
2021/01/11 06:03:16;;;;;;;13.43;8.93;;;;;;;-2.48;78.32;100985.48;1746613;81;21154;-68
2021/01/11 06:05:45;;;;;;;34.08;23.05;;;;;;;-2.49;78.30;100985.93;1755269;81;23151;-70
2021/01/11 06:08:14;;;;;;;22.93;15.63;;;;;;;-2.48;78.34;100984.20;1745369;81;21197;-67
2021/01/11 06:10:56;;;;;;;16.10;11.12;;;;;;;-2.50;78.34;100979.05;1768886;80;21655;-68
2021/01/11 06:13:24;;;;;;;14.23;10.10;;;;;;;-2.52;78.34;100979.48;1769062;80;21060;-68
2021/01/11 06:15:52;;;;;;;12.18;8.88;;;;;;;-2.53;78.35;100976.94;1774574;80;21029;-68
2021/01/11 06:18:22;;;;;;;13.10;9.43;;;;;;;-2.57;78.36;100976.58;1752404;80;22139;-68
2021/01/11 06:20:50;;;;;;;13.58;9.13;;;;;;;-2.61;78.37;100974.05;1744105;82;21124;-68
2021/01/11 06:23:26;;;;;;;14.25;9.05;;;;;;;-2.65;78.37;100978.84;1744093;82;21132;-68
2021/01/11 06:25:55;;;;;;;12.82;8.73;;;;;;;-2.69;78.37;100981.08;1744707;80;21033;-68
2021/01/11 06:28:33;;;;;;;10.53;7.90;;;;;;;-2.77;78.36;100981.63;1760579;80;21041;-68
2021/01/11 06:31:10;;;;;;;11.78;8.10;;;;;;;-2.80;78.35;100983.38;1769504;80;21954;-68
2021/01/11 06:33:39;;;;;;;12.73;8.05;;;;;;;-2.85;78.31;100980.88;1749873;80;21124;-68
2021/01/11 06:36:31;;;;;;;16.27;12.95;;;;;;;-2.88;78.30;100977.05;1772208;79;21165;-68
2021/01/11 06:39:07;;;;;;;15.40;9.98;;;;;;;-2.92;78.34;100972.34;1772949;80;21115;-69
2021/01/11 06:41:36;;;;;;;11.43;8.75;;;;;;;-2.94;78.36;100977.13;1774890;80;21049;-69
2021/01/11 06:44:07;;;;;;;12.10;7.95;;;;;;;-2.97;78.42;100974.60;1774807;80;22938;-69
2021/01/11 06:46:43;;;;;;;13.80;9.20;;;;;;;-3.00;78.45;100976.77;1774774;80;21128;-69
2021/01/11 06:49:28;;;;;;;14.65;9.80;;;;;;;-3.03;78.48;100974.23;1772596;80;21140;-69
2021/01/11 06:52:05;;;;;;;14.60;10.10;;;;;;;-3.04;78.52;100968.66;1770842;80;21152;-67
2021/01/11 06:54:44;;;;;;;14.90;10.53;;;;;;;-3.04;78.56;100973.83;1745971;80;21061;-68
2021/01/11 06:59:54;;;;;;;26.05;18.32;;;;;;;-2.93;78.64;100982.27;1861542;75;29089;-68
2021/01/11 07:02:24;;;;;;;21.27;14.33;;;;;;;-2.94;78.69;100981.01;1822420;78;21043;-69
2021/01/11 07:04:52;;;;;;;16.35;10.95;;;;;;;-2.92;78.73;100980.10;1817495;77;22948;-68
2021/01/11 07:07:24;;;;;;;15.72;10.58;;;;;;;-2.90;78.75;100976.20;1827922;78;21064;-70
2021/01/11 07:10:03;;;;;;;15.93;10.70;;;;;;;-2.89;78.78;100976.64;1784226;79;21056;-71
2021/01/11 07:12:31;;;;;;;14.95;10.98;;;;;;;-2.87;78.81;100977.47;1798782;78;21047;-70
2021/01/11 07:15:06;;;;;;;26.07;21.05;;;;;;;-2.86;78.87;100978.32;1796820;79;21118;-70
2021/01/11 07:17:38;;;;;;;19.25;15.13;;;;;;;-2.84;78.92;100974.83;1776522;80;21553;-69
2021/01/11 07:20:10;;;;;;;20.05;14.55;;;;;;;-2.80;78.97;100980.80;1770009;80;21138;-70
2021/01/11 07:22:42;;;;;;;19.57;12.95;;;;;;;-2.79;78.98;100979.50;1775217;80;21131;-69
2021/01/11 07:25:24;;;;;;;20.17;13.88;;;;;;;-2.76;78.97;100981.19;1774999;80;21483;-68
2021/01/11 07:27:59;;;;;;;14.78;9.80;;;;;;;-2.71;78.97;100981.95;1776544;80;21084;-69
2021/01/11 07:30:27;;;;;;;12.03;8.60;;;;;;;-2.69;79.03;100981.52;1770048;80;22835;-71
2021/01/11 07:32:56;;;;;;;15.10;9.58;;;;;;;-2.66;79.08;100978.87;1764447;80;21586;-71
2021/01/11 07:35:25;;;;;;;19.60;13.28;;;;;;;-2.64;79.10;100985.72;1775549;80;21084;-71
2021/01/11 07:37:54;;;;;;;14.83;10.72;;;;;;;-2.62;79.05;100986.98;1745955;82;21139;-68
2021/01/11 07:40:22;;;;;;;13.55;8.68;;;;;;;-2.57;79.05;100983.05;1777236;80;21061;-67
2021/01/11 07:42:50;;;;;;;15.68;9.93;;;;;;;-2.52;79.02;100973.47;1776700;80;22126;-67
2021/01/11 07:45:19;;;;;;;17.15;11.05;;;;;;;-2.48;78.93;100968.67;1760964;80;21127;-67
2021/01/11 07:47:51;;;;;;;17.65;12.03;;;;;;;-2.42;78.87;100966.82;1761568;80;21138;-68
2021/01/11 07:50:23;;;;;;;13.15;9.23;;;;;;;-2.35;78.80;100970.17;1748683;80;21146;-67
2021/01/11 07:52:50;;;;;;;15.20;9.63;;;;;;;-2.26;78.67;100981.66;1745683;80;21055;-66
2021/01/11 07:55:18;;;;;;;13.80;9.20;;;;;;;-2.20;78.55;100985.45;1743511;80;22806;-69
2021/01/11 07:57:45;;;;;;;10.35;7.05;;;;;;;-2.13;78.53;100988.31;1719997;80;21578;-69
2021/01/11 08:00:16;;;;;;;17.48;10.68;;;;;;;-2.11;78.18;100991.76;1761776;80;21166;-69
2021/01/11 08:02:45;;;;;;;12.03;7.80;;;;;;;-2.08;77.93;100989.55;1747141;80;21068;-68
2021/01/11 08:05:21;;;;;;;10.18;7.08;;;;;;;-2.07;77.74;100978.31;1766533;80;21127;-67
2021/01/11 08:08:07;;;;;;;8.60;5.55;;;;;;;-2.01;77.67;100979.50;1753231;80;21885;-68
2021/01/11 08:10:37;;;;;;;7.92;6.03;;;;;;;-1.95;77.47;100979.37;1744434;80;21151;-68
2021/01/11 08:13:08;;;;;;;54.42;28.00;;;;;;;-1.90;77.23;100981.89;1758256;80;21116;-68
2021/01/11 08:15:36;;;;;;;39.63;20.82;;;;;;;-1.84;77.02;100994.70;1774273;80;21123;-67
2021/01/11 08:18:05;;;;;;;16.93;9.88;;;;;;;-1.87;76.76;100991.74;1774677;80;21054;-65
2021/01/11 08:20:33;;;;;;;11.22;7.87;;;;;;;-1.85;76.62;100996.44;1745345;82;22931;-65
2021/01/11 08:23:09;;;;;;;10.72;7.10;;;;;;;-1.83;76.29;100999.87;1749310;80;21079;-66
2021/01/11 08:25:38;;;;;;;10.68;7.05;;;;;;;-1.76;76.31;101003.19;1750950;80;21131;-65
2021/01/11 08:28:09;;;;;;;10.53;6.70;;;;;;;-1.65;76.06;101002.98;1774047;80;21120;-67
2021/01/11 08:30:37;;;;;;;38.78;20.15;;;;;;;-1.56;75.85;100999.77;1774454;80;21605;-65
2021/01/11 08:33:07;;;;;;;32.08;17.23;;;;;;;-1.48;75.70;101000.48;1773938;80;22064;-67
2021/01/11 08:35:34;;;;;;;16.97;10.18;;;;;;;-1.45;75.56;100999.55;1748065;80;21114;-66
2021/01/11 08:38:05;;;;;;;34.13;18.15;;;;;;;-1.36;75.45;100998.52;1747603;80;21486;-66
2021/01/11 08:40:34;;;;;;;25.43;14.90;;;;;;;-1.30;75.16;101001.84;1764750;80;21056;-65
2021/01/11 08:43:13;;;;;;;11.53;6.75;;;;;;;-1.31;74.82;101003.19;1764869;80;21066;-65
2021/01/11 08:45:42;;;;;;;10.70;6.92;;;;;;;-1.34;74.52;100995.03;1761221;79;21519;-66
2021/01/11 08:48:15;;;;;;;10.08;6.58;;;;;;;-1.34;74.41;100992.45;1762290;80;21477;-66
2021/01/11 08:50:56;;;;;;;8.95;6.75;;;;;;;-1.30;74.31;100995.81;1760486;80;21076;-67
2021/01/11 08:53:37;;;;;;;9.98;6.35;;;;;;;-1.24;73.89;100999.59;1773330;80;21083;-66
2021/01/11 08:56:09;;;;;;;11.57;7.10;;;;;;;-1.16;73.93;100997.66;1763755;80;21146;-65
2021/01/11 08:58:49;;;;;;;13.68;8.58;;;;;;;-1.06;73.89;100991.42;1745368;81;23102;-70
2021/01/11 09:01:18;;;;;;;11.40;7.97;;;;;;;-0.92;73.83;100997.59;1728108;82;21135;-66
2021/01/11 09:03:58;;;;;;;11.53;8.50;;;;;;;-0.80;73.70;100993.86;1700773;84;21168;-67
2021/01/11 09:06:45;;;;;;;14.10;10.45;;;;;;;-0.75;73.34;100995.47;1718030;83;21215;-65
2021/01/11 09:09:18;;;;;;;13.13;9.83;;;;;;;-0.72;73.09;100986.76;1730738;82;21156;-65
2021/01/11 09:11:47;;;;;;;10.58;7.70;;;;;;;-0.67;72.99;100983.19;1692473;84;22108;-65
2021/01/11 09:14:18;;;;;;;14.18;10.63;;;;;;;-0.62;72.67;100981.77;1704322;81;21176;-67
2021/01/11 09:16:47;;;;;;;11.40;8.53;;;;;;;-0.65;72.32;100983.99;1714470;83;21192;-68
2021/01/11 09:19:17;;;;;;;17.35;12.60;;;;;;;-0.67;72.28;100976.70;1728865;83;21366;-67
2021/01/11 09:22:17;;;;;;;16.80;12.37;;;;;;;-0.64;72.16;100977.91;1718316;83;21202;-66
2021/01/11 09:24:45;;;;;;;15.90;11.68;;;;;;;-0.53;72.34;100970.31;1715099;82;22077;-67
2021/01/11 09:27:15;;;;;;;15.83;11.08;;;;;;;-0.40;72.37;100970.41;1718401;83;21080;-67
2021/01/11 09:29:43;;;;;;;13.43;9.20;;;;;;;-0.27;72.01;100972.28;1719632;81;21488;-67
2021/01/11 09:32:11;;;;;;;17.05;13.10;;;;;;;-0.23;71.62;100968.70;1724376;83;21067;-67
2021/01/11 09:34:39;;;;;;;11.50;8.33;;;;;;;-0.17;71.54;100978.94;1726335;82;21112;-66
2021/01/11 09:37:12;;;;;;;13.62;9.33;;;;;;;-0.08;71.38;100974.81;1724935;82;22952;-66
2021/01/11 09:39:41;;;;;;;35.55;21.25;;;;;;;-0.14;70.38;100972.36;1726231;83;21097;-66
2021/01/11 09:42:10;;;;;;;16.23;10.85;;;;;;;-0.16;70.73;100985.38;1725338;83;21104;-66
2021/01/11 09:44:38;;;;;;;18.87;12.40;;;;;;;-0.02;70.54;100971.58;1725356;83;21116;-64
2021/01/11 09:47:08;;;;;;;15.03;10.78;;;;;;;0.12;70.50;100965.19;1725429;83;21155;-67
2021/01/11 09:49:36;;;;;;;15.13;10.23;;;;;;;0.31;70.36;100964.24;1726554;83;22074;-65
2021/01/11 09:52:06;;;;;;;14.73;9.60;;;;;;;0.53;70.45;100958.38;1714178;82;21494;-65
2021/01/11 09:54:34;;;;;;;14.33;8.85;;;;;;;0.70;70.14;100956.60;1706588;81;21100;-66
2021/01/11 09:57:04;;;;;;;15.65;10.25;;;;;;;0.83;69.77;100950.58;1718222;83;21483;-66
2021/01/11 09:59:32;;;;;;;11.88;7.50;;;;;;;1.02;70.09;100950.88;1723902;81;21482;-66
2021/01/11 10:02:01;;;;;;;9.15;7.20;;;;;;;1.34;69.65;100951.16;1728859;83;22087;-65
2021/01/11 10:04:30;;;;;;;20.92;14.65;;;;;;;1.45;69.15;100952.98;1720844;81;21124;-66
2021/01/11 10:06:57;;;;;;;18.20;11.35;;;;;;;1.47;68.14;100951.63;1725038;83;21183;-69
2021/01/11 10:09:28;;;;;;;11.68;7.80;;;;;;;1.42;68.04;100950.01;1728292;83;21196;-68
2021/01/11 10:12:00;;;;;;;9.50;7.08;;;;;;;1.38;67.71;100947.12;1705035;83;21148;-67
2021/01/11 10:14:29;;;;;;;10.55;7.33;;;;;;;1.33;67.69;100952.05;1725598;82;21615;-68
2021/01/11 10:16:56;;;;;;;17.48;12.50;;;;;;;1.23;67.09;100948.05;1699593;83;21156;-69
2021/01/11 10:19:27;;;;;;;13.72;8.78;;;;;;;1.13;67.23;100947.48;1714304;82;21217;-68
2021/01/11 10:21:55;;;;;;;10.05;6.35;;;;;;;1.09;67.16;100948.05;1735097;82;21228;-69
2021/01/11 10:24:23;;;;;;;8.63;5.05;;;;;;;0.91;66.80;100946.45;1717603;81;21196;-68
2021/01/11 10:26:52;;;;;;;7.65;5.75;;;;;;;0.80;66.77;100951.53;1737085;81;22069;-66
2021/01/11 10:29:22;;;;;;;7.50;5.62;;;;;;;0.68;67.07;100940.20;1743608;81;21184;-69
2021/01/11 10:31:51;;;;;;;8.58;5.40;;;;;;;0.55;66.99;100939.69;1735135;81;21284;-66
2021/01/11 10:34:22;;;;;;;7.87;5.22;;;;;;;0.54;67.50;100947.09;1726795;81;21132;-67
2021/01/11 10:36:52;;;;;;;9.23;6.25;;;;;;;0.51;67.10;100935.49;1731815;81;21204;-66
2021/01/11 10:39:24;;;;;;;12.33;7.62;;;;;;;0.37;67.19;100940.66;1729461;81;22046;-67
2021/01/11 10:41:54;;;;;;;11.15;6.22;;;;;;;0.36;67.85;100943.72;1726701;81;29214;-67
2021/01/11 10:44:24;;;;;;;15.50;8.70;;;;;;;0.45;68.01;100942.16;1739499;81;21164;-66
2021/01/11 10:46:58;;;;;;;7.75;5.35;;;;;;;0.50;68.10;100944.64;1731370;81;21188;-65
2021/01/11 10:49:25;;;;;;;;;;;;;;;0.54;68.09;100948.39;1683066;84;21447;-65
2021/01/11 10:51:55;;;;;;;8.83;6.25;;;;;;;0.59;68.23;100956.07;1713073;81;22077;-66
2021/01/11 10:54:27;;;;;;;8.75;5.97;;;;;;;0.62;68.09;100955.13;1740927;81;21168;-66
2021/01/11 10:56:55;;;;;;;16.97;10.50;;;;;;;0.58;67.92;100950.47;1732041;81;21197;-66
2021/01/11 10:59:23;;;;;;;33.67;21.42;;;;;;;0.52;68.18;100955.39;1700608;82;21165;-65
2021/01/11 11:01:52;;;;;;;15.38;10.03;;;;;;;0.51;68.17;100954.98;1707796;83;21259;-69
2021/01/11 11:04:23;;;;;;;9.60;6.70;;;;;;;0.55;68.30;100956.59;1712688;83;22981;-67
2021/01/11 11:06:51;;;;;;;9.23;6.22;;;;;;;0.52;68.27;100955.39;1718144;82;21674;-65
2021/01/11 11:09:19;;;;;;;8.83;6.00;;;;;;;0.49;68.08;100960.69;1683927;83;21228;-65
2021/01/11 11:11:52;;;;;;;7.67;5.60;;;;;;;0.47;68.12;100957.25;1713442;83;21200;-66
2021/01/11 11:14:19;;;;;;;7.42;5.78;;;;;;;0.44;68.17;100957.34;1690711;83;21190;-65
2021/01/11 11:16:47;;;;;;;9.03;6.17;;;;;;;0.44;68.21;100959.95;1701509;83;22079;-65
2021/01/11 11:19:15;;;;;;;8.25;6.12;;;;;;;0.46;68.29;100959.45;1690477;84;21517;-65
2021/01/11 11:21:43;;;;;;;8.13;6.08;;;;;;;0.48;68.22;100955.08;1690594;83;21175;-67
2021/01/11 11:24:13;;;;;;;10.23;6.47;;;;;;;0.49;68.03;100950.73;1715347;83;21191;-65
2021/01/11 11:26:41;;;;;;;7.97;6.03;;;;;;;0.47;68.16;100953.80;1718278;82;21167;-65
2021/01/11 11:29:10;;;;;;;9.85;6.37;;;;;;;0.49;68.20;100955.48;1690659;84;21908;-65
2021/01/11 11:31:39;;;;;;;9.13;6.70;;;;;;;0.51;68.28;100954.98;1695567;83;21208;-67
2021/01/11 11:34:08;;;;;;;10.85;6.00;;;;;;;0.54;68.18;100950.14;1704003;83;21576;-65
2021/01/11 11:36:36;;;;;;;8.73;6.20;;;;;;;0.55;68.24;100953.98;1705935;83;22181;-67